createdAt,value
2019-03-30T00:01:22.341Z,4.40
2019-03-30T00:04:03.382Z,4.40
2019-03-30T00:06:44.129Z,4.30
2019-03-30T00:09:24.860Z,4.30
2019-03-30T00:12:05.579Z,4.40
2019-03-30T00:14:46.387Z,4.20
2019-03-30T00:17:27.192Z,4.10
2019-03-30T00:20:07.925Z,4.00
2019-03-30T00:22:48.898Z,4.00
2019-03-30T00:25:30.042Z,3.90
2019-03-30T00:28:10.486Z,3.80
2019-03-30T00:30:51.337Z,5.90
2019-03-30T00:33:32.173Z,3.80
2019-03-30T00:36:13.198Z,3.80
2019-03-30T00:38:54.056Z,3.70
2019-03-30T00:41:34.796Z,3.60
2019-03-30T00:44:15.595Z,3.60
2019-03-30T00:46:56.470Z,3.60
2019-03-30T00:49:48.487Z,3.50
2019-03-30T00:52:20.168Z,3.50
2019-03-30T00:55:01.007Z,3.40
2019-03-30T00:57:41.789Z,4.80
2019-03-30T01:00:22.565Z,3.50
2019-03-30T01:03:03.185Z,7.20
2019-03-30T01:05:43.580Z,3.30
2019-03-30T01:08:23.953Z,3.30
2019-03-30T01:11:04.468Z,3.30
2019-03-30T01:13:45.274Z,3.20
2019-03-30T01:16:26.103Z,3.20
2019-03-30T01:19:06.995Z,3.20
2019-03-30T01:21:47.463Z,3.20
2019-03-30T01:24:28.282Z,3.20
2019-03-30T01:27:09.315Z,3.20
2019-03-30T01:29:50.000Z,3.10
2019-03-30T01:32:30.478Z,3.10
2019-03-30T01:35:11.010Z,3.10
2019-03-30T01:37:51.383Z,3.00
2019-03-30T01:40:31.744Z,2.90
2019-03-30T01:43:12.284Z,2.90
2019-03-30T01:45:52.875Z,2.90
2019-03-30T01:48:33.149Z,2.90
2019-03-30T01:51:13.853Z,2.90
2019-03-30T01:53:54.763Z,2.90
2019-03-30T01:56:35.537Z,2.90
2019-03-30T01:59:16.595Z,2.90
2019-03-30T02:01:57.357Z,2.80
2019-03-30T02:04:38.206Z,2.80
2019-03-30T02:07:18.992Z,2.80
2019-03-30T02:09:59.788Z,2.80
2019-03-30T02:12:40.562Z,2.70
2019-03-30T02:15:21.052Z,2.70
2019-03-30T02:18:01.723Z,2.70
2019-03-30T02:20:42.189Z,2.70
2019-03-30T02:23:22.501Z,2.60
2019-03-30T02:26:02.841Z,2.60
2019-03-30T02:28:43.769Z,2.60
2019-03-30T02:31:24.420Z,2.50
2019-03-30T02:34:05.595Z,2.50
2019-03-30T02:36:46.123Z,2.60
2019-03-30T02:39:26.908Z,2.40
2019-03-30T02:42:07.335Z,2.50
2019-03-30T02:44:47.903Z,2.40
2019-03-30T02:47:28.468Z,2.40
2019-03-30T02:50:09.118Z,2.40
2019-03-30T02:52:49.481Z,6.50
2019-03-30T02:55:30.607Z,2.30
2019-03-30T02:58:11.281Z,2.30
2019-03-30T03:00:52.018Z,2.30
2019-03-30T03:03:32.685Z,2.20
2019-03-30T03:06:13.387Z,2.20
2019-03-30T03:08:53.974Z,2.20
2019-03-30T03:11:34.461Z,2.20
2019-03-30T03:14:15.239Z,2.10
2019-03-30T03:16:56.236Z,2.10
2019-03-30T03:19:36.858Z,2.10
2019-03-30T03:22:17.824Z,2.10
2019-03-30T03:24:58.501Z,2.10
2019-03-30T03:27:39.183Z,2.10
2019-03-30T03:30:19.959Z,2.00
2019-03-30T03:33:00.768Z,2.00
2019-03-30T03:35:41.284Z,2.00
2019-03-30T03:38:21.946Z,1.90
2019-03-30T03:41:02.819Z,2.00
2019-03-30T03:43:43.248Z,1.90
2019-03-30T03:46:23.845Z,1.90
2019-03-30T03:49:04.277Z,1.90
2019-03-30T03:51:45.036Z,1.90
2019-03-30T03:54:25.982Z,1.90
2019-03-30T03:57:06.573Z,1.80
2019-03-30T03:59:47.485Z,1.80
2019-03-30T04:02:28.402Z,1.80
2019-03-30T04:05:09.304Z,1.80
2019-03-30T04:07:50.254Z,1.80
2019-03-30T04:10:30.679Z,1.80
2019-03-30T04:13:11.606Z,1.80
2019-03-30T04:15:52.002Z,1.80
2019-03-30T04:18:32.321Z,1.70
2019-03-30T04:21:13.198Z,1.70
2019-03-30T04:23:54.554Z,1.70
2019-03-30T04:26:35.705Z,1.70
2019-03-30T04:29:16.507Z,1.80
2019-03-30T04:31:57.489Z,1.60
2019-03-30T04:34:37.799Z,1.60
2019-03-30T04:37:18.350Z,1.60
2019-03-30T04:39:58.814Z,1.70
2019-03-30T04:42:39.836Z,1.60
2019-03-30T04:45:20.526Z,1.60
2019-03-30T04:48:01.310Z,1.50
2019-03-30T04:50:41.860Z,1.50
2019-03-30T04:53:22.197Z,1.50
2019-03-30T04:56:02.710Z,1.50
2019-03-30T04:58:43.541Z,1.50
2019-03-30T05:01:24.378Z,1.40
2019-03-30T05:04:05.139Z,4.70
2019-03-30T05:06:45.891Z,1.50
2019-03-30T05:09:26.587Z,1.50
2019-03-30T05:12:07.348Z,1.40
2019-03-30T05:14:47.917Z,1.40
2019-03-30T05:17:44.664Z,1.40
2019-03-30T05:20:10.883Z,1.40
2019-03-30T05:22:51.818Z,1.40
2019-03-30T05:25:32.382Z,1.40
2019-03-30T05:28:12.993Z,1.40
2019-03-30T05:30:53.433Z,1.40
2019-03-30T05:33:34.191Z,1.40
2019-03-30T05:36:15.097Z,1.40
2019-03-30T05:38:55.859Z,1.50
2019-03-30T05:41:36.395Z,1.50
2019-03-30T05:44:17.425Z,1.50
2019-03-30T05:46:58.202Z,1.50
2019-03-30T05:49:38.688Z,1.60
2019-03-30T05:52:26.558Z,1.60
2019-03-30T05:55:02.065Z,1.70
2019-03-30T05:57:42.306Z,1.70
2019-03-30T06:00:24.341Z,1.70
2019-03-30T06:03:04.961Z,1.80
2019-03-30T06:05:45.732Z,1.80
2019-03-30T06:08:26.498Z,1.90
2019-03-30T06:11:07.416Z,2.00
2019-03-30T06:13:48.332Z,2.00
2019-03-30T06:16:28.888Z,5.70
2019-03-30T06:19:09.533Z,2.30
2019-03-30T06:21:50.058Z,2.40
2019-03-30T06:24:30.578Z,2.50
2019-03-30T06:27:11.628Z,2.60
2019-03-30T06:29:52.148Z,5.30
2019-03-30T06:32:32.743Z,2.80
2019-03-30T06:35:13.403Z,2.90
2019-03-30T06:37:54.023Z,2.90
2019-03-30T06:40:34.927Z,3.10
2019-03-30T06:43:15.789Z,3.20
2019-03-30T06:45:56.516Z,3.40
2019-03-30T06:48:36.993Z,3.50
2019-03-30T06:51:17.487Z,3.60
2019-03-30T06:53:58.058Z,3.80
2019-03-30T06:56:39.097Z,3.90
2019-03-30T06:59:19.822Z,8.00
2019-03-30T07:02:00.463Z,6.20
2019-03-30T07:04:40.977Z,4.20
2019-03-30T07:07:21.802Z,4.30
2019-03-30T07:10:02.163Z,4.50
2019-03-30T07:12:43.106Z,4.60
2019-03-30T07:15:23.947Z,4.70
2019-03-30T07:18:04.527Z,4.90
2019-03-30T07:20:45.116Z,5.00
2019-03-30T07:23:25.811Z,5.20
2019-03-30T07:26:06.393Z,8.00
2019-03-30T07:28:47.297Z,5.50
2019-03-30T07:31:28.042Z,5.60
2019-03-30T07:34:08.768Z,9.80
2019-03-30T07:36:49.687Z,5.90
2019-03-30T07:39:30.457Z,6.00
2019-03-30T07:42:11.178Z,6.20
2019-03-30T07:44:52.131Z,10.00
2019-03-30T07:47:32.747Z,6.60
2019-03-30T07:50:13.528Z,6.70
2019-03-30T07:52:53.993Z,6.90
2019-03-30T07:55:34.904Z,7.00
2019-03-30T07:58:15.571Z,7.30
2019-03-30T08:00:56.732Z,7.40
2019-03-30T08:03:37.515Z,7.60
2019-03-30T08:06:18.313Z,7.70
2019-03-30T08:08:59.038Z,7.90
2019-03-30T08:11:39.774Z,8.00
2019-03-30T08:14:20.481Z,8.20
2019-03-30T08:17:01.402Z,8.30
2019-03-30T08:19:41.861Z,8.50
2019-03-30T08:22:22.762Z,8.60
2019-03-30T08:25:03.727Z,8.70
2019-03-30T08:27:44.625Z,8.90
2019-03-30T08:30:25.715Z,9.20
2019-03-30T08:33:06.429Z,9.30
2019-03-30T08:35:47.267Z,9.50
2019-03-30T08:38:27.685Z,9.70
2019-03-30T08:41:08.598Z,9.90
2019-03-30T08:43:49.624Z,10.00
2019-03-30T08:46:30.598Z,10.30
2019-03-30T08:49:11.553Z,10.50
2019-03-30T08:51:52.819Z,10.70
2019-03-30T08:54:33.352Z,10.90
2019-03-30T08:57:13.883Z,11.20
2019-03-30T08:59:54.619Z,12.00
2019-03-30T09:02:35.621Z,11.60
2019-03-30T09:05:16.359Z,11.90
2019-03-30T09:07:57.144Z,12.10
2019-03-30T09:10:37.900Z,12.40
2019-03-30T09:13:18.422Z,12.60
2019-03-30T09:15:59.202Z,13.40
2019-03-30T09:18:39.841Z,13.20
2019-03-30T09:21:20.380Z,13.60
2019-03-30T09:24:09.378Z,14.00
2019-03-30T09:26:44.663Z,14.30
2019-03-30T09:29:25.307Z,14.70
2019-03-30T09:32:14.386Z,15.00
2019-03-30T09:34:48.056Z,15.20
2019-03-30T09:37:28.933Z,17.00
2019-03-30T09:40:09.381Z,16.10
2019-03-30T09:42:49.733Z,16.40
2019-03-30T09:45:29.924Z,16.60
2019-03-30T09:48:10.616Z,16.80
2019-03-30T09:50:51.278Z,17.40
2019-03-30T09:53:32.122Z,17.30
2019-03-30T09:56:12.841Z,17.50
2019-03-30T09:58:53.393Z,17.50
2019-03-30T10:01:34.287Z,17.90
2019-03-30T10:04:15.165Z,18.10
2019-03-30T10:06:56.062Z,18.30
2019-03-30T10:09:36.630Z,18.40
2019-03-30T10:12:17.178Z,18.60
2019-03-30T10:14:57.862Z,18.80
2019-03-30T10:17:38.801Z,18.70
2019-03-30T10:20:19.621Z,19.00
2019-03-30T10:23:00.520Z,19.20
2019-03-30T10:25:41.251Z,19.40
2019-03-30T10:28:21.891Z,19.70
2019-03-30T10:31:02.312Z,20.40
2019-03-30T10:33:43.097Z,20.20
2019-03-30T10:36:24.024Z,20.10
2019-03-30T10:39:04.720Z,20.60
2019-03-30T10:41:45.128Z,20.90
2019-03-30T10:44:25.950Z,21.90
2019-03-30T10:47:06.247Z,19.80
2019-03-30T10:49:47.119Z,20.20
2019-03-30T10:52:27.778Z,20.00
2019-03-30T10:55:08.750Z,20.10
2019-03-30T10:57:49.262Z,20.40
2019-03-30T11:00:29.827Z,20.70
2019-03-30T11:03:10.470Z,20.90
2019-03-30T11:05:51.477Z,21.30
2019-03-30T11:08:31.902Z,21.40
2019-03-30T11:11:13.020Z,21.90
2019-03-30T11:13:53.435Z,22.20
2019-03-30T11:16:34.322Z,22.20
2019-03-30T11:19:14.946Z,21.40
2019-03-30T11:21:55.372Z,21.20
2019-03-30T11:24:35.929Z,21.80
2019-03-30T11:27:16.861Z,22.10
2019-03-30T11:29:58.125Z,22.40
2019-03-30T11:32:38.484Z,22.60
2019-03-30T11:35:18.866Z,22.70
2019-03-30T11:38:07.281Z,22.50
2019-03-30T11:40:48.172Z,22.40
2019-03-30T11:43:28.646Z,22.80
2019-03-30T11:46:09.516Z,22.10
2019-03-30T11:48:49.905Z,22.10
2019-03-30T11:51:30.822Z,22.10
2019-03-30T11:54:11.669Z,22.60
2019-03-30T11:56:52.327Z,22.60
2019-03-30T11:59:32.826Z,23.60
2019-03-30T12:02:26.962Z,23.20
2019-03-30T12:04:56.396Z,23.10
2019-03-30T12:07:36.965Z,23.10
2019-03-30T12:10:17.599Z,23.30
2019-03-30T12:12:58.531Z,23.00
2019-03-30T12:15:39.384Z,23.20
2019-03-30T12:18:20.014Z,23.80
2019-03-30T12:21:00.635Z,23.90
2019-03-30T12:23:42.746Z,23.60
2019-03-30T12:26:23.534Z,23.90
2019-03-30T12:29:04.197Z,23.30
2019-03-30T12:31:45.145Z,23.30
2019-03-30T12:34:25.605Z,23.50
2019-03-30T12:37:06.526Z,23.70
2019-03-30T12:39:47.071Z,23.90
2019-03-30T12:42:28.010Z,24.30
2019-03-30T12:45:08.425Z,24.70
2019-03-30T12:47:48.875Z,24.50
2019-03-30T12:50:29.591Z,24.80
2019-03-30T12:53:10.148Z,24.50
2019-03-30T12:55:50.786Z,24.60
2019-03-30T12:58:31.602Z,24.70
2019-03-30T13:01:15.515Z,25.50
2019-03-30T13:03:55.162Z,25.10
2019-03-30T13:06:35.649Z,24.70
2019-03-30T13:09:16.473Z,24.20
2019-03-30T13:11:57.335Z,24.30
2019-03-30T13:14:37.798Z,23.70
2019-03-30T13:17:18.395Z,23.80
2019-03-30T13:19:59.313Z,24.00
2019-03-30T13:22:40.260Z,24.70
2019-03-30T13:25:21.191Z,25.30
2019-03-30T13:28:02.067Z,25.20
2019-03-30T13:30:42.815Z,25.60
2019-03-30T13:33:23.712Z,25.80
2019-03-30T13:36:04.141Z,26.10
2019-03-30T13:38:44.876Z,25.80
2019-03-30T13:41:25.501Z,25.70
2019-03-30T13:44:06.372Z,25.80
2019-03-30T13:46:46.790Z,25.80
2019-03-30T13:49:29.657Z,26.20
2019-03-30T13:52:09.852Z,26.90
2019-03-30T13:54:50.386Z,27.10
2019-03-30T13:57:30.646Z,26.60
2019-03-30T14:00:11.112Z,26.50
2019-03-30T14:02:51.440Z,27.20
2019-03-30T14:05:31.936Z,26.60
2019-03-30T14:08:12.820Z,26.80
2019-03-30T14:10:53.601Z,26.90
2019-03-30T14:13:34.405Z,26.80
2019-03-30T14:16:15.302Z,26.70
2019-03-30T14:18:55.943Z,26.40
2019-03-30T14:21:36.611Z,26.80
2019-03-30T14:24:17.196Z,26.10
2019-03-30T14:26:57.846Z,26.30
2019-03-30T14:29:38.505Z,26.20
2019-03-30T14:32:19.476Z,26.10
2019-03-30T14:35:00.239Z,26.00
2019-03-30T14:37:41.084Z,26.00
2019-03-30T14:40:21.524Z,27.00
2019-03-30T14:43:02.397Z,27.30
2019-03-30T14:45:42.776Z,27.00
2019-03-30T14:48:23.305Z,26.90
2019-03-30T14:51:03.856Z,26.60
2019-03-30T14:53:44.539Z,26.00
2019-03-30T14:56:25.461Z,24.80
2019-03-30T14:59:10.504Z,23.50
2019-03-30T15:01:48.770Z,23.50
2019-03-30T15:04:29.100Z,24.40
2019-03-30T15:07:09.846Z,25.30
2019-03-30T15:09:50.149Z,25.90
2019-03-30T15:12:31.151Z,25.30
2019-03-30T15:15:11.775Z,24.30
2019-03-30T15:17:52.438Z,23.40
2019-03-30T15:20:32.852Z,23.90
2019-03-30T15:23:13.281Z,23.30
2019-03-30T15:25:53.957Z,22.60
2019-03-30T15:28:34.745Z,22.00
2019-03-30T15:31:15.193Z,21.30
2019-03-30T15:33:55.725Z,20.80
2019-03-30T15:36:36.155Z,20.50
2019-03-30T15:39:16.883Z,20.30
2019-03-30T15:41:57.616Z,20.10
2019-03-30T15:44:38.222Z,19.80
2019-03-30T15:47:19.012Z,20.00
2019-03-30T15:49:59.986Z,20.10
2019-03-30T15:52:40.700Z,20.70
2019-03-30T15:55:21.511Z,21.00
2019-03-30T15:58:01.991Z,21.50
2019-03-30T16:00:42.875Z,22.10
2019-03-30T16:03:23.600Z,22.70
2019-03-30T16:06:04.084Z,22.60
2019-03-30T16:08:44.691Z,22.30
2019-03-30T16:11:25.392Z,21.70
2019-03-30T16:14:06.070Z,21.90
2019-03-30T16:16:46.665Z,22.50
2019-03-30T16:19:27.839Z,22.90
2019-03-30T16:22:08.637Z,22.30
2019-03-30T16:24:49.016Z,21.70
2019-03-30T16:27:29.922Z,21.10
2019-03-30T16:30:10.673Z,23.40
2019-03-30T16:32:51.224Z,20.20
2019-03-30T16:35:31.697Z,19.70
2019-03-30T16:38:12.726Z,19.40
2019-03-30T16:40:53.828Z,19.20
2019-03-30T16:43:34.307Z,18.90
2019-03-30T16:46:15.110Z,18.70
2019-03-30T16:48:55.868Z,18.40
2019-03-30T16:51:36.580Z,18.20
2019-03-30T16:54:17.249Z,18.00
2019-03-30T16:56:58.109Z,17.80
2019-03-30T16:59:39.349Z,19.00
2019-03-30T17:02:20.151Z,20.10
2019-03-30T17:05:00.493Z,17.70
2019-03-30T17:07:41.142Z,17.60
2019-03-30T17:10:21.666Z,17.60
2019-03-30T17:13:02.551Z,17.40
2019-03-30T17:15:43.186Z,17.30
2019-03-30T17:18:23.746Z,17.20
2019-03-30T17:21:04.416Z,17.00
2019-03-30T17:23:45.052Z,16.90
2019-03-30T17:26:25.881Z,16.80
2019-03-30T17:29:06.669Z,16.60
2019-03-30T17:31:47.329Z,16.40
2019-03-30T17:34:28.156Z,16.20
2019-03-30T17:37:08.663Z,16.10
2019-03-30T17:39:49.215Z,17.10
2019-03-30T17:42:29.827Z,15.70
2019-03-30T17:45:10.456Z,15.50
2019-03-30T17:47:51.741Z,15.30
2019-03-30T17:50:32.175Z,18.50
2019-03-30T17:53:12.811Z,14.90
2019-03-30T17:55:53.236Z,14.70
2019-03-30T17:58:34.169Z,14.50
2019-03-30T18:01:15.929Z,14.30
2019-03-30T18:03:56.515Z,14.00
2019-03-30T18:06:37.390Z,13.90
2019-03-30T18:09:18.189Z,13.80
2019-03-30T18:11:58.595Z,13.50
2019-03-30T18:14:39.224Z,13.40
2019-03-30T18:17:19.805Z,13.30
2019-03-30T18:20:00.458Z,13.20
2019-03-30T18:22:41.280Z,13.10
2019-03-30T18:25:22.277Z,12.80
2019-03-30T18:28:03.096Z,12.70
2019-03-30T18:30:43.839Z,13.60
2019-03-30T18:33:24.685Z,12.40
2019-03-30T18:36:05.334Z,12.20
2019-03-30T18:38:46.213Z,12.10
2019-03-30T18:41:27.001Z,13.30
2019-03-30T18:44:07.757Z,11.90
2019-03-30T18:46:48.564Z,11.80
2019-03-30T18:49:29.378Z,13.00
2019-03-30T18:52:09.724Z,11.60
2019-03-30T18:54:50.466Z,11.40
2019-03-30T18:57:31.083Z,11.30
2019-03-30T19:00:12.206Z,11.20
2019-03-30T19:02:51.048Z,11.10
2019-03-30T19:05:38.814Z,11.00
2019-03-30T19:08:26.578Z,10.90
2019-03-30T19:11:14.377Z,10.80
2019-03-30T19:17:08.957Z,10.60
2019-03-30T19:19:56.687Z,10.50
2019-03-30T19:22:44.392Z,10.40
2019-03-30T19:25:32.206Z,10.40
2019-03-30T19:28:20.002Z,10.30
2019-03-30T19:31:15.230Z,10.20
2019-03-30T19:34:02.991Z,10.10
2019-03-30T19:36:50.806Z,10.00
2019-03-30T19:39:38.575Z,9.90
2019-03-30T19:42:26.323Z,9.90
2019-03-30T19:48:22.534Z,9.70
2019-03-30T19:51:10.306Z,9.60
2019-03-30T19:53:59.917Z,10.70
2019-03-30T19:56:47.485Z,9.40
2019-03-30T19:59:35.214Z,9.30
2019-03-30T20:02:23.003Z,9.30
2019-03-30T20:05:03.704Z,9.10
2019-03-30T20:07:44.415Z,9.10
2019-03-30T20:10:25.250Z,9.00
2019-03-30T20:13:09.109Z,8.90
2019-03-30T20:15:47.965Z,8.90
2019-03-30T20:18:28.949Z,8.80
2019-03-30T20:21:09.836Z,8.70
2019-03-30T20:23:50.659Z,8.70
2019-03-30T20:26:30.927Z,8.60
2019-03-30T20:29:24.628Z,9.20
2019-03-30T20:31:54.055Z,11.90
2019-03-30T20:34:34.588Z,8.40
2019-03-30T20:37:15.024Z,8.30
2019-03-30T20:39:55.903Z,8.20
2019-03-30T20:42:36.553Z,8.20
2019-03-30T20:45:17.572Z,8.10
2019-03-30T20:47:58.167Z,8.00
2019-03-30T20:50:39.238Z,8.00
2019-03-30T20:53:20.185Z,7.90
2019-03-30T20:56:01.026Z,7.90
2019-03-30T20:58:41.898Z,7.80
2019-03-30T21:01:22.300Z,7.80
2019-03-30T21:04:03.153Z,7.70
2019-03-30T21:06:43.695Z,7.60
2019-03-30T21:09:24.254Z,4.10
2019-03-30T21:12:04.731Z,7.40
2019-03-30T21:14:45.426Z,7.40
2019-03-30T21:17:26.379Z,7.30
2019-03-30T21:20:07.292Z,7.20
2019-03-30T21:22:48.065Z,7.10
2019-03-30T21:25:28.673Z,7.10
2019-03-30T21:28:09.134Z,7.00
2019-03-30T21:30:49.659Z,7.00
2019-03-30T21:33:30.359Z,6.90
2019-03-30T21:36:11.396Z,6.90
2019-03-30T21:38:52.469Z,6.80
2019-03-30T21:41:33.140Z,6.80
2019-03-30T21:44:21.857Z,6.70
2019-03-30T21:46:56.834Z,6.60
2019-03-30T21:49:37.368Z,6.60
2019-03-30T21:52:17.974Z,6.60
2019-03-30T21:54:58.335Z,6.60
2019-03-30T21:57:39.169Z,6.50
2019-03-30T22:00:19.809Z,6.50
2019-03-30T22:02:58.580Z,6.40
2019-03-30T22:05:46.320Z,6.40
2019-03-30T22:08:34.003Z,6.40
2019-03-30T22:11:21.739Z,6.30
2019-03-30T22:14:09.510Z,6.30
2019-03-30T22:16:57.239Z,6.20
2019-03-30T22:19:44.936Z,6.20
2019-03-30T22:22:32.739Z,6.10
2019-03-30T22:25:20.522Z,6.10
2019-03-30T22:28:08.321Z,6.10
2019-03-30T22:30:56.090Z,6.00
2019-03-30T22:33:43.830Z,6.00
2019-03-30T22:36:31.533Z,6.00
2019-03-30T22:39:19.238Z,6.00
2019-03-30T22:42:07.010Z,5.90
2019-03-30T22:44:54.728Z,5.80
2019-03-30T22:47:42.444Z,5.80
2019-03-30T22:50:30.134Z,5.80
2019-03-30T22:53:17.867Z,5.80
2019-03-30T22:56:05.541Z,6.90
2019-03-30T22:58:53.253Z,5.70
2019-03-30T23:01:40.948Z,5.60
2019-03-30T23:04:21.566Z,5.60
2019-03-30T23:07:01.999Z,5.50
2019-03-30T23:09:42.912Z,5.50
2019-03-30T23:12:23.631Z,5.50
2019-03-30T23:15:04.675Z,5.40
2019-03-30T23:17:45.192Z,5.40
2019-03-30T23:20:26.093Z,5.30
2019-03-30T23:23:06.958Z,5.30
2019-03-30T23:25:47.658Z,5.20
2019-03-30T23:28:28.493Z,5.20
2019-03-30T23:31:09.167Z,5.20
2019-03-30T23:33:49.869Z,5.20
2019-03-30T23:36:30.744Z,5.10
2019-03-30T23:39:11.859Z,5.10
2019-03-30T23:41:52.592Z,5.00
2019-03-30T23:44:33.324Z,5.00
2019-03-30T23:47:13.907Z,5.00
2019-03-30T23:49:54.735Z,5.00
2019-03-30T23:52:35.404Z,4.90
2019-03-30T23:55:16.248Z,4.90
2019-03-30T23:57:57.034Z,4.90
